createdAt,value
2023-03-22T00:01:24.032Z,53.16
2023-03-22T00:03:52.520Z,53.30
2023-03-22T00:06:21.013Z,53.03
2023-03-22T00:08:53.338Z,53.05
2023-03-22T00:11:22.766Z,53.01
2023-03-22T00:13:52.694Z,53.05
2023-03-22T00:16:21.703Z,52.95
2023-03-22T00:18:49.161Z,53.07
2023-03-22T00:21:17.692Z,52.96
2023-03-22T00:23:45.510Z,52.95
2023-03-22T00:26:14.954Z,52.80
2023-03-22T00:28:43.700Z,52.99
2023-03-22T00:31:11.264Z,52.78
2023-03-22T00:33:38.706Z,52.94
2023-03-22T00:36:09.334Z,52.91
2023-03-22T00:38:44.858Z,52.75
2023-03-22T00:41:14.293Z,52.81
2023-03-22T00:43:41.963Z,52.77
2023-03-22T00:46:10.831Z,52.75
2023-03-22T00:48:38.570Z,52.76
2023-03-22T00:51:07.426Z,52.80
2023-03-22T00:53:37.402Z,52.61
2023-03-22T00:56:06.150Z,52.61
2023-03-22T00:58:43.378Z,52.77
2023-03-22T01:01:14.608Z,52.47
2023-03-22T01:03:43.652Z,52.75
2023-03-22T01:06:14.628Z,52.80
2023-03-22T01:08:41.980Z,52.70
2023-03-22T01:11:09.664Z,52.45
2023-03-22T01:13:37.787Z,52.70
2023-03-22T01:16:06.794Z,52.63
2023-03-22T01:18:35.857Z,52.61
2023-03-22T01:21:03.981Z,52.61
2023-03-22T01:23:31.950Z,52.69
2023-03-22T01:25:59.634Z,52.69
2023-03-22T01:28:27.554Z,52.52
2023-03-22T01:30:55.460Z,52.48
2023-03-22T01:33:22.954Z,52.83
2023-03-22T01:35:51.660Z,52.78
2023-03-22T01:38:20.461Z,52.77
2023-03-22T01:40:55.308Z,52.73
2023-03-22T01:43:22.952Z,52.69
2023-03-22T01:45:52.314Z,52.60
2023-03-22T01:48:27.228Z,52.59
2023-03-22T01:51:12.259Z,52.61
2023-03-22T01:54:12.316Z,52.72
2023-03-22T01:56:41.746Z,52.64
2023-03-22T01:59:15.467Z,52.62
2023-03-22T02:02:10.933Z,52.61
2023-03-22T02:04:39.363Z,52.56
2023-03-22T02:07:15.643Z,52.58
2023-03-22T02:09:46.621Z,52.74
2023-03-22T02:12:17.665Z,52.79
2023-03-22T02:15:23.342Z,52.70
2023-03-22T02:18:17.075Z,52.67
2023-03-22T02:20:53.064Z,52.77
2023-03-22T02:23:58.771Z,52.61
2023-03-22T02:26:47.590Z,52.68
2023-03-22T02:29:19.252Z,52.59
2023-03-22T02:31:55.548Z,52.57
2023-03-22T02:34:47.503Z,52.74
2023-03-22T02:37:27.139Z,52.62
2023-03-22T02:40:03.975Z,52.85
2023-03-22T02:42:34.032Z,52.63
2023-03-22T02:45:24.680Z,52.70
2023-03-22T02:48:16.590Z,52.63
2023-03-22T02:50:53.569Z,52.80
2023-03-22T02:53:40.786Z,52.86
2023-03-22T02:56:13.218Z,52.67
2023-03-22T02:58:57.874Z,52.83
2023-03-22T03:01:33.376Z,52.83
2023-03-22T03:04:04.947Z,52.62
2023-03-22T03:06:38.938Z,52.75
2023-03-22T03:09:08.239Z,52.58
2023-03-22T03:11:36.653Z,52.91
2023-03-22T03:14:05.074Z,52.75
2023-03-22T03:16:36.696Z,52.91
2023-03-22T03:19:43.476Z,52.71
2023-03-22T03:22:35.218Z,52.54
2023-03-22T03:25:14.830Z,52.63
2023-03-22T03:27:50.953Z,52.81
2023-03-22T03:30:31.539Z,52.62
2023-03-22T03:33:04.392Z,52.66
2023-03-22T03:35:38.378Z,52.66
2023-03-22T03:38:13.552Z,52.60
2023-03-22T03:40:45.630Z,52.73
2023-03-22T03:43:14.268Z,52.66
2023-03-22T03:45:42.271Z,52.51
2023-03-22T03:48:18.384Z,52.69
2023-03-22T03:50:47.749Z,52.62
2023-03-22T03:53:15.080Z,52.72
2023-03-22T03:55:42.375Z,52.63
2023-03-22T03:58:10.333Z,52.63
2023-03-22T04:00:38.575Z,52.43
2023-03-22T04:03:28.813Z,52.63
2023-03-22T04:06:14.694Z,52.62
2023-03-22T04:08:46.810Z,52.49
2023-03-22T04:11:16.767Z,52.56
2023-03-22T04:13:47.364Z,52.47
2023-03-22T04:16:19.955Z,52.80
2023-03-22T04:18:47.601Z,52.48
2023-03-22T04:21:16.475Z,52.55
2023-03-22T04:24:02.620Z,52.45
2023-03-22T04:26:35.302Z,52.40
2023-03-22T04:29:25.762Z,52.46
2023-03-22T04:31:59.684Z,52.41
2023-03-22T04:34:46.387Z,52.42
2023-03-22T04:37:16.308Z,52.40
2023-03-22T04:39:57.967Z,52.17
2023-03-22T04:43:04.344Z,52.25
2023-03-22T04:45:55.111Z,52.43
2023-03-22T04:48:28.108Z,52.18
2023-03-22T04:50:57.049Z,52.33
2023-03-22T04:53:27.583Z,52.00
2023-03-22T04:55:59.297Z,52.29
2023-03-22T04:58:28.527Z,52.25
2023-03-22T05:00:55.774Z,52.19
2023-03-22T05:03:23.805Z,52.43
2023-03-22T05:06:01.503Z,52.21
2023-03-22T05:08:38.467Z,52.33
2023-03-22T05:11:13.304Z,52.19
2023-03-22T05:13:42.294Z,51.92
2023-03-22T05:16:10.449Z,52.25
2023-03-22T05:18:46.393Z,52.16
2023-03-22T05:21:16.064Z,52.21
2023-03-22T05:23:45.724Z,52.30
2023-03-22T05:26:20.481Z,52.22
2023-03-22T05:28:47.869Z,52.21
2023-03-22T05:31:22.670Z,52.22
2023-03-22T05:33:56.514Z,52.19
2023-03-22T05:36:29.664Z,52.12
2023-03-22T05:39:17.384Z,52.19
2023-03-22T05:41:46.312Z,52.17
2023-03-22T05:44:14.280Z,52.23
2023-03-22T05:46:50.894Z,52.20
2023-03-22T05:49:31.785Z,52.27
2023-03-22T05:51:59.061Z,52.35
2023-03-22T05:54:37.728Z,52.43
2023-03-22T05:57:06.561Z,52.23
2023-03-22T05:59:33.916Z,52.36
2023-03-22T06:02:01.560Z,52.32
2023-03-22T06:04:31.584Z,52.38
2023-03-22T06:07:02.930Z,52.29
2023-03-22T06:09:50.351Z,52.37
2023-03-22T06:12:24.697Z,52.38
2023-03-22T06:15:09.763Z,52.54
2023-03-22T06:18:01.665Z,52.40
2023-03-22T06:20:33.014Z,52.32
2023-03-22T06:23:04.322Z,52.26
2023-03-22T06:25:32.524Z,52.25
2023-03-22T06:28:00.840Z,52.12
2023-03-22T06:30:29.627Z,52.32
2023-03-22T06:33:36.512Z,52.31
2023-03-22T06:36:21.149Z,52.31
2023-03-22T06:39:23.865Z,52.31
2023-03-22T06:41:52.356Z,52.29
2023-03-22T06:44:19.897Z,52.20
2023-03-22T06:46:52.801Z,52.25
2023-03-22T06:49:46.179Z,52.39
2023-03-22T06:52:26.415Z,52.28
2023-03-22T06:54:53.723Z,52.23
2023-03-22T06:57:21.235Z,52.28
2023-03-22T06:59:48.553Z,52.14
2023-03-22T07:02:15.963Z,52.23
2023-03-22T07:05:01.843Z,52.14
2023-03-22T07:07:29.196Z,52.21
2023-03-22T07:09:57.024Z,52.25
2023-03-22T07:12:24.681Z,52.10
2023-03-22T07:14:52.356Z,52.17
2023-03-22T07:17:43.588Z,52.25
2023-03-22T07:20:11.256Z,52.17
2023-03-22T07:22:38.740Z,52.20
2023-03-22T07:25:06.380Z,52.42
2023-03-22T07:27:34.402Z,52.33
2023-03-22T07:30:01.940Z,52.27
2023-03-22T07:32:32.743Z,52.26
2023-03-22T07:35:11.858Z,52.36
2023-03-22T07:37:40.608Z,52.32
2023-03-22T07:40:17.263Z,52.19
2023-03-22T07:42:44.578Z,52.35
2023-03-22T07:45:35.874Z,52.58
2023-03-22T07:48:23.862Z,52.65
2023-03-22T07:51:17.695Z,52.38
2023-03-22T07:53:45.044Z,52.39
2023-03-22T07:56:12.530Z,52.35
2023-03-22T07:58:40.020Z,52.15
2023-03-22T08:01:09.997Z,52.20
2023-03-22T08:03:54.191Z,52.11
2023-03-22T08:06:40.379Z,52.13
2023-03-22T08:09:08.458Z,52.30
2023-03-22T08:11:36.662Z,52.97
2023-03-22T08:14:03.896Z,53.03
2023-03-22T08:16:34.205Z,52.74
2023-03-22T08:19:03.589Z,52.52
2023-03-22T08:21:34.766Z,53.00
2023-03-22T08:24:05.844Z,52.95
2023-03-22T08:26:56.225Z,52.58
2023-03-22T08:29:31.275Z,52.77
2023-03-22T08:32:02.266Z,52.67
2023-03-22T08:34:31.492Z,52.71
2023-03-22T08:36:59.038Z,52.82
2023-03-22T08:39:27.110Z,52.76
2023-03-22T08:42:12.250Z,52.70
2023-03-22T08:44:39.545Z,52.69
2023-03-22T08:47:07.007Z,52.69
2023-03-22T08:49:34.907Z,52.69
2023-03-22T08:52:10.598Z,52.65
2023-03-22T08:55:05.351Z,52.71
2023-03-22T08:58:02.037Z,52.62
2023-03-22T09:00:48.176Z,52.50
2023-03-22T09:03:43.702Z,52.42
2023-03-22T09:06:11.253Z,52.49
2023-03-22T09:08:42.105Z,52.49
2023-03-22T09:11:14.347Z,52.60
2023-03-22T09:13:43.677Z,52.36
2023-03-22T09:16:11.338Z,52.34
2023-03-22T09:18:40.183Z,52.34
2023-03-22T09:21:14.608Z,52.28
2023-03-22T09:24:05.102Z,52.04
2023-03-22T09:26:46.064Z,51.75
2023-03-22T09:29:16.072Z,51.88
2023-03-22T09:31:44.604Z,52.02
2023-03-22T09:34:18.370Z,51.72
2023-03-22T09:36:47.504Z,51.96
2023-03-22T09:39:17.205Z,51.86
2023-03-22T09:41:51.813Z,51.96
2023-03-22T09:44:56.007Z,52.01
2023-03-22T09:47:44.158Z,52.02
2023-03-22T09:50:28.528Z,52.00
2023-03-22T09:52:55.839Z,51.96
2023-03-22T09:56:15.436Z,52.11
2023-03-22T09:59:15.942Z,51.17
2023-03-22T10:01:57.113Z,51.53
2023-03-22T10:04:34.678Z,51.31
2023-03-22T10:07:29.881Z,51.61
2023-03-22T10:10:18.202Z,51.53
2023-03-22T10:13:23.249Z,51.57
2023-03-22T10:15:56.173Z,50.77
2023-03-22T10:18:30.153Z,51.25
2023-03-22T10:21:02.880Z,50.51
2023-03-22T10:24:05.254Z,50.10
2023-03-22T10:26:37.157Z,50.64
2023-03-22T10:29:16.738Z,50.79
2023-03-22T10:31:45.175Z,51.17
2023-03-22T10:34:33.710Z,50.90
2023-03-22T10:37:04.293Z,51.07
2023-03-22T10:39:38.345Z,50.97
2023-03-22T10:42:12.953Z,51.38
2023-03-22T10:44:48.123Z,51.30
2023-03-22T10:47:21.872Z,51.20
2023-03-22T10:49:56.180Z,51.11
2023-03-22T10:52:57.353Z,51.16
2023-03-22T10:55:25.488Z,51.17
2023-03-22T10:58:12.199Z,51.23
2023-03-22T11:00:45.587Z,51.33
2023-03-22T11:03:36.951Z,51.14
2023-03-22T11:06:22.958Z,51.25
2023-03-22T11:08:54.872Z,51.22
2023-03-22T11:11:26.073Z,51.20
2023-03-22T11:14:23.738Z,51.10
2023-03-22T11:17:00.638Z,51.05
2023-03-22T11:19:37.111Z,51.32
2023-03-22T11:22:26.650Z,51.29
2023-03-22T11:24:56.783Z,51.40
2023-03-22T11:27:29.379Z,51.34
2023-03-22T11:30:17.181Z,51.52
2023-03-22T11:32:44.576Z,51.40
2023-03-22T11:35:20.639Z,51.07
2023-03-22T11:37:56.048Z,51.28
2023-03-22T11:40:33.375Z,51.39
2023-03-22T11:43:24.927Z,51.43
2023-03-22T11:45:57.382Z,51.36
2023-03-22T11:48:27.800Z,51.29
2023-03-22T11:51:04.348Z,51.29
2023-03-22T11:53:34.520Z,51.04
2023-03-22T11:56:07.444Z,51.01
2023-03-22T11:58:37.523Z,51.01
2023-03-22T12:01:06.150Z,51.20
2023-03-22T12:03:39.509Z,50.90
2023-03-22T12:06:19.256Z,51.12
2023-03-22T12:08:55.132Z,50.90
2023-03-22T12:11:37.780Z,51.17
2023-03-22T12:14:21.298Z,51.16
2023-03-22T12:17:14.842Z,51.37
2023-03-22T12:20:09.724Z,51.06
2023-03-22T12:22:45.622Z,51.08
2023-03-22T12:25:17.540Z,51.11
2023-03-22T12:27:52.635Z,51.09
2023-03-22T12:30:23.779Z,51.03
2023-03-22T12:33:02.617Z,50.88
2023-03-22T12:35:33.520Z,50.94
2023-03-22T12:38:21.798Z,50.97
2023-03-22T12:40:50.991Z,51.26
2023-03-22T12:43:44.733Z,51.10
2023-03-22T12:46:19.812Z,50.94
2023-03-22T12:48:56.233Z,51.24
2023-03-22T12:51:23.782Z,51.20
2023-03-22T12:53:55.188Z,51.36
2023-03-22T12:56:34.641Z,51.03
2023-03-22T12:59:05.866Z,51.33
2023-03-22T13:01:45.691Z,51.15
2023-03-22T13:04:31.898Z,51.08
2023-03-22T13:07:14.421Z,51.03
2023-03-22T13:09:41.907Z,51.18
2023-03-22T13:12:15.403Z,51.14
2023-03-22T13:14:48.781Z,51.12
2023-03-22T13:17:41.246Z,51.16
2023-03-22T13:20:15.682Z,51.05
2023-03-22T13:22:45.841Z,51.07
2023-03-22T13:25:13.517Z,51.00
2023-03-22T13:27:54.530Z,51.09
2023-03-22T13:30:24.218Z,51.20
2023-03-22T13:33:03.490Z,50.92
2023-03-22T13:35:40.021Z,50.92
2023-03-22T13:38:29.579Z,50.96
2023-03-22T13:41:05.306Z,50.68
2023-03-22T13:43:35.333Z,50.96
2023-03-22T13:46:17.601Z,50.66
2023-03-22T13:48:48.499Z,50.69
2023-03-22T13:51:22.857Z,50.66
2023-03-22T13:54:18.828Z,50.90
2023-03-22T13:56:59.619Z,50.89
2023-03-22T13:59:33.945Z,50.80
2023-03-22T14:02:07.622Z,50.69
2023-03-22T14:04:47.568Z,50.90
2023-03-22T14:07:21.104Z,50.92
2023-03-22T14:10:11.404Z,50.89
2023-03-22T14:12:55.966Z,50.98
2023-03-22T14:15:26.563Z,50.99
2023-03-22T14:18:04.092Z,50.88
2023-03-22T14:20:35.641Z,50.80
